Time;durP1;ratioP1;P1;durP2;ratioP2;P2;SDS_P1;SDS_P2;PMS_P1;PMS_P2;Temp;Humidity;BMP_temperature;BMP_pressure;BME280_temperature;BME280_humidity;BME280_pressure;Samples;Min_cycle;Max_cycle;Signal;HPM_P1;HPM_P2
2022/01/27 00:05:23;;;;;;;43.67;25.67;;;;;;;2.59;87.79;102606.63;5074077;28;20040;-89
2022/01/27 00:08:13;;;;;;;43.25;26.00;;;;;;;2.69;88.02;102625.53;5040482;28;20056;-89
2022/01/27 00:13:15;;;;;;;47.00;27.08;;;;;;;2.69;87.73;102613.94;5056358;28;20476;-89
2022/01/27 00:15:43;;;;;;;43.03;25.60;;;;;;;2.50;87.60;102580.56;5055445;28;20102;-89
2022/01/27 00:18:15;;;;;;;43.72;26.70;;;;;;;2.57;88.25;102591.63;5055061;28;20472;-89
2022/01/27 00:20:41;;;;;;;45.10;26.10;;;;;;;2.43;88.67;102550.69;5040161;28;20086;-88
2022/01/27 00:23:07;;;;;;;40.20;24.27;;;;;;;2.50;88.16;102547.56;5039062;28;20040;-88
2022/01/27 00:25:33;;;;;;;43.88;24.98;;;;;;;2.74;87.66;102587.66;5055405;28;20484;-88
2022/01/27 00:28:01;;;;;;;46.97;26.95;;;;;;;2.61;88.60;102564.50;5038708;28;20143;-89
2022/01/27 00:30:26;;;;;;;39.20;25.27;;;;;;;2.67;88.27;102576.53;5055102;28;20085;-88
2022/01/27 00:32:52;;;;;;;40.13;25.15;;;;;;;2.80;88.01;102600.56;5038830;28;20032;-89
2022/01/27 00:35:18;;;;;;;39.50;24.73;;;;;;;2.63;88.64;102588.50;5054655;28;20035;-88
2022/01/27 00:37:43;;;;;;;42.08;25.95;;;;;;;2.81;88.54;102615.69;5055352;28;20469;-88
2022/01/27 00:40:12;;;;;;;39.40;25.13;;;;;;;2.96;87.89;102632.38;5038706;28;20488;-88
2022/01/27 00:42:39;;;;;;;39.50;24.63;;;;;;;2.74;88.53;102587.66;5055478;28;20043;-88
2022/01/27 00:45:05;;;;;;;43.10;26.30;;;;;;;2.84;88.08;102598.50;5055101;28;20029;-88
2022/01/27 00:47:31;;;;;;;42.38;25.88;;;;;;;3.05;87.66;102631.63;5038230;28;20043;-89
2022/01/27 00:49:56;;;;;;;40.70;26.95;;;;;;;2.80;87.84;102582.66;5038461;28;20028;-88
2022/01/27 00:52:36;;;;;;;40.67;25.88;;;;;;;2.86;88.22;102575.94;5054604;28;20017;-88
2022/01/27 00:55:01;;;;;;;45.47;25.90;;;;;;;2.85;87.84;102570.69;5055349;28;20061;-88
2022/01/27 00:59:59;;;;;;;39.05;23.38;;;;;;;2.77;87.69;102544.50;5039132;28;20044;-88
2022/01/27 01:02:38;;;;;;;40.10;24.63;;;;;;;2.75;87.70;102541.94;5038997;28;20031;-88
2022/01/27 01:07:36;;;;;;;40.20;24.25;;;;;;;3.10;87.47;102591.91;5054824;28;20036;-89
2022/01/27 01:15:34;;;;;;;36.58;21.25;;;;;;;2.72;87.64;102525.28;5043695;28;20036;-89
2022/01/27 01:33:57;;;;;;;36.72;22.38;;;;;;;3.27;87.07;102578.97;5072816;28;20055;-88
2022/01/27 01:36:37;;;;;;;39.65;22.50;;;;;;;3.30;86.86;102576.88;5054702;28;20033;-88
2022/01/27 01:39:04;;;;;;;37.55;21.52;;;;;;;3.14;87.01;102534.38;5072495;28;20122;-88
2022/01/27 01:41:30;;;;;;;39.72;24.88;;;;;;;3.32;86.83;102563.31;5054295;28;20036;-88
2022/01/27 01:43:56;;;;;;;36.95;22.88;;;;;;;3.07;86.65;102500.97;5038023;28;20033;-89
2022/01/27 01:46:21;;;;;;;37.53;23.58;;;;;;;3.22;87.17;102508.72;5037136;28;20036;-89
2022/01/27 01:48:47;;;;;;;37.70;23.45;;;;;;;3.31;86.48;102532.13;5021221;28;20102;-88
2022/01/27 01:51:22;;;;;;;38.15;22.77;;;;;;;3.26;87.22;102518.22;5054196;28;20139;-88
2022/01/27 01:53:47;;;;;;;38.70;22.90;;;;;;;3.30;86.75;102520.53;5054524;28;20047;-88
2022/01/27 01:56:13;;;;;;;38.28;23.80;;;;;;;3.22;86.88;102525.69;5021204;28;20122;-88
2022/01/27 01:58:39;;;;;;;37.70;23.60;;;;;;;2.88;87.01;102466.75;5053891;28;20031;-88
2022/01/27 02:01:07;;;;;;;39.90;23.65;;;;;;;3.18;86.98;102523.38;5021040;28;20075;-88
2022/01/27 02:03:32;;;;;;;35.70;22.35;;;;;;;3.24;86.98;102525.56;5037466;28;20095;-88
2022/01/27 02:05:58;;;;;;;36.47;23.17;;;;;;;3.16;87.25;102513.63;5037433;28;20040;-88
2022/01/27 02:19:30;;;;;;;38.03;23.25;;;;;;;3.13;87.54;102464.72;5075769;28;20047;-88
2022/01/27 02:21:58;;;;;;;39.35;22.55;;;;;;;2.92;87.25;102414.59;5057975;28;20024;-89
2022/01/27 02:24:26;;;;;;;39.22;22.63;;;;;;;3.25;87.11;102465.53;5057997;28;20560;-89
2022/01/27 02:26:52;;;;;;;34.50;19.65;;;;;;;2.96;87.04;102404.47;5075855;28;20048;-89
2022/01/27 02:29:19;;;;;;;38.92;22.98;;;;;;;2.96;87.18;102424.06;5057461;28;20033;-89
2022/01/27 02:31:46;;;;;;;36.10;22.38;;;;;;;3.32;87.43;102489.06;5057950;28;20040;-88
2022/01/27 02:34:12;;;;;;;35.90;23.33;;;;;;;2.90;87.75;102426.41;5041532;28;20541;-89
2022/01/27 02:36:38;;;;;;;36.80;21.73;;;;;;;3.03;87.50;102432.47;5057356;28;20145;-89
2022/01/27 02:39:05;;;;;;;38.67;23.08;;;;;;;3.05;87.54;102445.75;5075310;28;20105;-89
2022/01/27 02:41:40;;;;;;;34.22;21.67;;;;;;;2.97;87.62;102423.09;5041255;28;20466;-89
2022/01/27 02:44:37;;;;;;;38.72;21.88;;;;;;;3.43;87.50;102481.97;5057739;28;20067;-89
2022/01/27 02:47:03;;;;;;;40.45;22.98;;;;;;;3.09;87.69;102420.38;5057634;28;20044;-89
2022/01/27 02:49:29;;;;;;;38.10;22.58;;;;;;;3.18;88.20;102441.06;5057645;28;20031;-89
2022/01/27 02:51:54;;;;;;;34.05;20.02;;;;;;;3.19;87.66;102434.75;5041218;28;20029;-89
2022/01/27 02:54:20;;;;;;;36.20;22.52;;;;;;;3.39;88.13;102470.63;5040370;28;20385;-89
2022/01/27 02:56:47;;;;;;;35.58;21.55;;;;;;;3.14;88.07;102415.47;5050553;22;20067;-89
2022/01/27 02:59:17;;;;;;;37.10;21.70;;;;;;;3.45;87.96;102454.00;5057441;28;20038;-89
2022/01/27 03:01:45;;;;;;;36.58;21.60;;;;;;;3.48;87.92;102452.91;5057669;28;20036;-89
2022/01/27 03:04:11;;;;;;;36.67;21.30;;;;;;;3.32;87.72;102424.69;5057595;28;20044;-88
2022/01/27 03:06:37;;;;;;;35.42;21.30;;;;;;;3.09;87.44;102372.94;5057324;28;20020;-89
2022/01/27 03:09:03;;;;;;;37.58;22.50;;;;;;;3.51;87.93;102418.63;5057033;28;20039;-88
2022/01/27 03:11:41;;;;;;;36.55;22.40;;;;;;;3.45;88.44;102429.00;5073566;28;20035;-88
2022/01/27 03:14:07;;;;;;;34.50;22.38;;;;;;;3.26;88.29;102400.19;5074479;28;20068;-89
2022/01/27 03:16:35;;;;;;;37.67;21.92;;;;;;;3.29;88.38;102416.03;5057269;28;20039;-88
2022/01/27 03:19:00;;;;;;;35.83;21.73;;;;;;;3.19;88.17;102391.81;5074509;28;20036;-88
2022/01/27 03:21:27;;;;;;;37.92;20.60;;;;;;;3.04;88.49;102374.31;5055687;28;20393;-88
2022/01/27 03:23:52;;;;;;;33.88;22.15;;;;;;;3.41;88.77;102409.63;5073402;28;20028;-88
2022/01/27 03:26:19;;;;;;;34.85;21.52;;;;;;;3.31;88.09;102398.81;5073617;28;20044;-89
2022/01/27 03:28:46;;;;;;;38.92;21.45;;;;;;;3.39;88.09;102422.31;5040115;28;20362;-88
2022/01/27 03:31:12;;;;;;;37.92;22.33;;;;;;;3.23;88.17;102379.00;5040002;28;20032;-88
2022/01/27 03:33:39;;;;;;;37.38;21.75;;;;;;;3.42;88.88;102414.00;5056334;28;20062;-88
2022/01/27 03:36:05;;;;;;;36.17;21.42;;;;;;;3.42;88.93;102405.13;5040203;28;20579;-88
2022/01/27 03:38:31;;;;;;;35.60;21.25;;;;;;;3.43;89.22;102404.13;5056552;28;20032;-88
2022/01/27 03:40:58;;;;;;;36.50;21.55;;;;;;;3.13;89.29;102355.63;5040053;28;20047;-88
2022/01/27 03:43:23;;;;;;;35.95;21.02;;;;;;;2.92;89.58;102339.53;5040052;28;20032;-88
2022/01/27 03:45:49;;;;;;;36.38;21.95;;;;;;;3.05;89.73;102365.28;5056568;28;20186;-88
2022/01/27 03:48:14;;;;;;;35.63;21.13;;;;;;;3.01;89.60;102355.81;5056179;28;20028;-88
2022/01/27 03:50:45;;;;;;;34.70;20.45;;;;;;;3.10;89.75;102373.78;5055809;28;20447;-89
2022/01/27 03:53:11;;;;;;;39.75;21.23;;;;;;;3.14;90.04;102372.56;5056375;28;20032;-89
2022/01/27 03:55:36;;;;;;;40.13;21.63;;;;;;;3.12;90.33;102366.50;5056681;28;20090;-89
2022/01/27 03:58:02;;;;;;;34.55;20.83;;;;;;;3.12;90.12;102370.00;5056437;28;20143;-89
2022/01/27 04:00:27;;;;;;;37.92;21.70;;;;;;;3.02;90.26;102344.94;5056618;28;20097;-89
2022/01/27 04:03:05;;;;;;;31.95;18.85;;;;;;;3.22;89.75;102358.50;5055945;28;20062;-89
2022/01/27 04:05:39;;;;;;;38.08;20.30;;;;;;;3.04;90.31;102331.41;5056420;28;20032;-88
2022/01/27 04:08:07;;;;;;;38.47;21.27;;;;;;;3.04;90.54;102331.41;5073583;28;20052;-88
2022/01/27 04:10:33;;;;;;;35.88;20.67;;;;;;;3.18;90.22;102323.06;5074005;28;20102;-89
2022/01/27 04:12:59;;;;;;;33.78;20.25;;;;;;;3.37;90.22;102353.69;5039439;28;20040;-88
2022/01/27 04:15:25;;;;;;;34.67;20.25;;;;;;;3.43;90.02;102347.78;5039471;28;20086;-88
2022/01/27 04:17:51;;;;;;;36.28;20.25;;;;;;;3.62;90.05;102369.38;5055891;28;20124;-88
2022/01/27 04:20:19;;;;;;;35.50;20.48;;;;;;;3.37;90.01;102335.75;5055665;28;20020;-88
2022/01/27 04:22:45;;;;;;;36.72;20.80;;;;;;;3.07;90.60;102290.91;5039139;28;20128;-88
2022/01/27 04:25:14;;;;;;;33.03;19.83;;;;;;;3.50;90.49;102365.06;5055286;28;20092;-88
2022/01/27 04:27:44;;;;;;;35.15;18.80;;;;;;;3.51;90.71;102366.75;5039481;28;20106;-89
2022/01/27 04:30:18;;;;;;;32.80;18.23;;;;;;;3.48;90.48;102348.22;5055529;28;20430;-88
2022/01/27 04:32:55;;;;;;;37.92;20.83;;;;;;;3.18;91.05;102316.84;5055398;28;20044;-88
2022/01/27 04:35:23;;;;;;;33.95;19.50;;;;;;;3.51;90.74;102369.44;5055604;28;20029;-89
2022/01/27 04:37:58;;;;;;;33.00;19.88;;;;;;;3.10;90.73;102315.66;5055313;28;20029;-88
2022/01/27 04:48:31;;;;;;;37.83;19.42;;;;;;;3.44;91.35;102338.75;5072964;28;20126;-88
2022/01/27 04:51:04;;;;;;;36.92;19.95;;;;;;;3.36;91.77;102343.94;5055083;28;20059;-88
2022/01/27 04:53:35;;;;;;;37.22;20.38;;;;;;;3.24;91.92;102327.88;5039650;28;20185;-88
2022/01/27 04:56:01;;;;;;;31.42;18.50;;;;;;;3.09;92.67;102307.75;5039198;28;20384;-89
2022/01/27 04:58:32;;;;;;;34.88;19.10;;;;;;;3.09;92.37;102313.13;5054573;28;20052;-88
2022/01/27 05:01:02;;;;;;;35.42;18.67;;;;;;;3.27;92.46;102326.78;5054529;28;20369;-88
2022/01/27 05:03:38;;;;;;;34.78;19.80;;;;;;;3.24;92.05;102327.88;5038861;28;20392;-88
2022/01/27 05:06:04;;;;;;;35.95;19.77;;;;;;;3.10;92.37;102298.69;5054827;28;20609;-88
2022/01/27 05:08:31;;;;;;;38.08;19.35;;;;;;;3.11;92.55;102284.31;5054886;28;20112;-88
2022/01/27 05:11:12;;;;;;;36.38;19.80;;;;;;;3.14;93.03;102297.47;5054427;28;20094;-88
2022/01/27 05:13:49;;;;;;;41.63;19.90;;;;;;;3.16;93.26;102322.34;5039629;28;20036;-88
2022/01/27 05:16:17;;;;;;;34.63;19.33;;;;;;;2.91;93.17;102281.50;5039097;28;20458;-89
2022/01/27 05:18:43;;;;;;;35.92;20.38;;;;;;;2.85;92.56;102232.91;5054561;28;20477;-89
2022/01/27 05:21:09;;;;;;;36.28;20.70;;;;;;;2.85;92.75;102232.91;5038513;28;20073;-89
2022/01/27 05:23:34;;;;;;;34.58;19.35;;;;;;;2.98;92.96;102266.59;5054694;28;20055;-89
2022/01/27 05:26:00;;;;;;;36.65;19.65;;;;;;;3.12;93.12;102286.03;5054962;28;20032;-89
2022/01/27 05:28:25;;;;;;;36.47;18.38;;;;;;;3.19;92.87;102280.97;5037930;28;20032;-88
2022/01/27 05:30:51;;;;;;;38.80;19.90;;;;;;;3.29;93.28;102293.47;5055485;28;20033;-88
2022/01/27 05:33:17;;;;;;;34.78;20.00;;;;;;;2.98;92.77;102234.44;5039206;28;20430;-89
2022/01/27 05:35:48;;;;;;;35.80;19.90;;;;;;;3.11;92.85;102233.38;5037831;28;20020;-89
2022/01/27 05:38:15;;;;;;;34.87;19.63;;;;;;;3.33;92.46;102262.69;5054369;28;20131;-88
2022/01/27 05:40:41;;;;;;;37.85;20.55;;;;;;;3.48;92.53;102284.69;5038226;28;20426;-88
2022/01/27 05:43:08;;;;;;;35.85;18.90;;;;;;;3.30;92.50;102249.56;5054042;28;20468;-88
2022/01/27 05:45:34;;;;;;;39.63;19.35;;;;;;;3.30;92.52;102240.66;5075250;28;20025;-88
2022/01/27 05:47:59;;;;;;;36.17;18.15;;;;;;;3.49;92.30;102283.69;5041799;28;20043;-88
2022/01/27 05:50:25;;;;;;;34.80;20.80;;;;;;;3.59;91.63;102283.75;5041552;28;20463;-88
2022/01/27 05:52:50;;;;;;;37.67;20.73;;;;;;;3.40;92.25;102254.16;5058146;28;20033;-89
2022/01/27 05:55:16;;;;;;;34.70;19.20;;;;;;;3.56;92.10;102278.66;5041681;28;20544;-89
2022/01/27 05:57:41;;;;;;;39.40;20.55;;;;;;;3.44;91.79;102243.00;5055073;28;20493;-87
2022/01/27 06:00:07;;;;;;;38.13;20.17;;;;;;;3.73;91.79;102276.31;5055895;28;20489;-88
2022/01/27 06:02:33;;;;;;;35.58;20.73;;;;;;;3.30;91.84;102206.63;5038172;28;20021;-87
2022/01/27 06:05:02;;;;;;;36.28;19.55;;;;;;;3.80;91.60;102278.31;5056084;28;20420;-88
2022/01/27 06:07:27;;;;;;;32.65;17.58;;;;;;;3.75;91.50;102268.97;5038720;28;20374;-88
2022/01/27 06:09:53;;;;;;;34.63;18.35;;;;;;;3.64;91.43;102238.56;5054163;28;20036;-93
2022/01/27 06:12:18;;;;;;;35.00;20.02;;;;;;;3.58;91.51;102209.56;5055802;28;20036;-89
2022/01/27 06:14:43;;;;;;;36.95;20.17;;;;;;;3.77;92.33;102238.31;5054118;28;20029;-86
2022/01/27 06:17:09;;;;;;;33.53;19.27;;;;;;;3.83;92.03;102229.72;5021327;28;20074;-87
2022/01/27 06:19:43;;;;;;;35.58;17.52;;;;;;;3.69;91.74;102197.88;5054258;28;20028;-91
2022/01/27 06:22:15;;;;;;;40.55;21.27;;;;;;;3.60;92.81;102223.72;5024218;28;20386;-91
2022/01/27 06:24:47;;;;;;;35.20;20.20;;;;;;;3.41;93.53;102186.06;5055705;28;20036;-91
2022/01/27 06:27:22;;;;;;;37.20;21.15;;;;;;;3.59;94.19;102238.13;5056198;28;20059;-91
2022/01/27 06:29:53;;;;;;;36.92;21.20;;;;;;;3.34;95.67;102201.88;5039909;28;20542;-92
2022/01/27 06:32:25;;;;;;;37.25;20.15;;;;;;;3.69;95.51;102256.94;5039334;28;20473;-92
2022/01/27 06:34:51;;;;;;;38.58;20.88;;;;;;;3.17;96.06;102181.88;5038955;28;20495;-91
2022/01/27 06:37:16;;;;;;;41.08;21.05;;;;;;;3.32;96.20;102195.75;5055706;28;20060;-91
2022/01/27 06:39:47;;;;;;;38.70;21.67;;;;;;;3.22;97.10;102198.44;5054821;28;20025;-92
2022/01/27 06:42:16;;;;;;;41.33;23.30;;;;;;;3.23;97.10;102189.38;5023013;28;20029;-90
2022/01/27 06:44:42;;;;;;;41.30;22.05;;;;;;;3.25;97.47;102175.81;5054828;28;20029;-91
2022/01/27 06:47:08;;;;;;;40.05;21.98;;;;;;;3.28;97.18;102178.25;5055324;28;20025;-91
2022/01/27 06:49:33;;;;;;;44.38;22.90;;;;;;;3.23;97.67;102165.22;5038389;28;20039;-91
2022/01/27 06:52:06;;;;;;;42.08;21.80;;;;;;;3.50;97.00;102193.31;5038660;28;20129;-91
2022/01/27 06:54:34;;;;;;;;;;;;;;;3.79;96.41;102228.28;5040125;28;20029;-91
2022/01/27 06:57:03;;;;;;;42.30;21.05;;;;;;;3.78;96.91;102242.72;5056165;28;19908;-91
2022/01/27 06:59:35;;;;;;;42.55;22.55;;;;;;;3.46;96.22;102167.75;5058244;28;20032;-91
2022/01/27 07:02:05;;;;;;;39.45;20.85;;;;;;;3.78;96.08;102201.56;5057517;28;20033;-92
2022/01/27 07:04:42;;;;;;;43.67;21.98;;;;;;;3.57;96.00;102156.88;5058253;28;20029;-92
2022/01/27 07:07:09;;;;;;;36.78;20.58;;;;;;;3.81;95.43;102195.94;5058700;28;20032;-88
2022/01/27 07:09:34;;;;;;;41.30;21.58;;;;;;;3.64;95.19;102159.88;5058229;28;20038;-92
2022/01/27 07:12:03;;;;;;;35.40;19.67;;;;;;;3.77;94.54;102178.41;5058852;28;20384;-96
2022/01/27 07:14:33;;;;;;;41.53;22.08;;;;;;;3.66;95.19;102163.25;5075899;28;20094;-91
2022/01/27 07:16:59;;;;;;;41.13;23.08;;;;;;;3.86;95.14;102196.38;5042098;28;20127;-91
2022/01/27 07:19:29;;;;;;;40.17;21.95;;;;;;;4.13;94.79;102252.09;5056116;28;20028;-91
2022/01/27 07:22:00;;;;;;;36.22;20.80;;;;;;;3.76;95.30;102187.44;5058049;28;20050;-90
2022/01/27 07:24:28;;;;;;;41.55;21.38;;;;;;;3.99;95.13;102221.13;5060692;28;20040;-91
2022/01/27 07:26:57;;;;;;;40.65;21.38;;;;;;;3.81;94.51;102188.75;5060191;28;20037;-91
2022/01/27 07:29:23;;;;;;;39.03;21.25;;;;;;;3.92;93.70;102182.41;5057727;28;20021;-90
2022/01/27 07:31:48;;;;;;;43.78;23.17;;;;;;;3.86;94.35;102175.72;5040967;28;20047;-93
2022/01/27 07:34:14;;;;;;;39.90;19.58;;;;;;;3.91;94.24;102180.69;5058012;28;20074;-90
2022/01/27 07:36:40;;;;;;;40.75;23.05;;;;;;;3.85;94.40;102176.75;5057049;28;20090;-88
2022/01/27 07:39:12;;;;;;;42.55;23.05;;;;;;;4.24;94.83;102236.84;5056685;28;20025;-88
2022/01/27 07:41:46;;;;;;;43.20;22.35;;;;;;;3.93;94.56;102200.22;5100958;22;20051;-89
2022/01/27 07:44:12;;;;;;;36.78;20.98;;;;;;;4.14;94.04;102215.38;5059614;28;20134;-88
2022/01/27 07:46:37;;;;;;;38.13;21.33;;;;;;;4.03;94.06;102190.34;5075258;28;20126;-88
2022/01/27 07:49:03;;;;;;;41.45;22.42;;;;;;;3.91;94.10;102175.31;5092604;28;20407;-88
2022/01/27 07:51:28;;;;;;;41.70;23.02;;;;;;;4.02;94.48;102188.63;5075738;28;20055;-88
2022/01/27 07:53:57;;;;;;;43.47;23.15;;;;;;;3.95;95.27;102175.91;5093554;28;20046;-89
2022/01/27 07:56:33;;;;;;;44.70;24.13;;;;;;;4.09;97.52;102221.16;5093645;28;20111;-88
2022/01/27 07:58:58;;;;;;;44.75;23.75;;;;;;;3.74;98.73;102178.69;5075465;28;20038;-88
2022/01/27 08:01:24;;;;;;;45.40;24.45;;;;;;;3.97;100.00;102233.00;5076045;28;20044;-89
2022/01/27 08:07:21;;;;;;;45.70;23.77;;;;;;;3.75;100.00;102215.28;5076085;28;20056;-90
2022/01/27 08:09:49;;;;;;;51.75;25.02;;;;;;;3.57;100.00;102189.09;5070859;28;20051;-88
2022/01/27 08:12:15;;;;;;;61.15;29.17;;;;;;;3.30;100.00;102166.38;5075323;28;20119;-88
2022/01/27 08:14:41;;;;;;;60.35;28.88;;;;;;;3.48;100.00;102200.63;5075336;28;20177;-88
2022/01/27 08:17:07;;;;;;;53.58;27.13;;;;;;;3.81;100.00;102265.72;5092227;28;20484;-88
2022/01/27 08:19:32;;;;;;;59.40;29.10;;;;;;;3.64;100.00;102229.66;5093607;28;20113;-90
2022/01/27 08:21:58;;;;;;;63.38;30.13;;;;;;;3.27;100.00;102168.50;5093363;28;20364;-87
2022/01/27 08:24:23;;;;;;;61.90;29.10;;;;;;;3.36;100.00;102182.94;5058287;28;20040;-87
2022/01/27 08:26:50;;;;;;;63.75;30.80;;;;;;;3.57;100.00;102209.72;5075205;28;20050;-88
2022/01/27 08:29:22;;;;;;;56.38;27.50;;;;;;;3.86;100.00;102250.91;5093428;28;20036;-88
2022/01/27 08:33:15;;;;;;;62.13;29.75;;;;;;;3.14;100.00;102133.88;5092033;28;20126;-87
2022/01/27 08:35:19;;;;;;;67.10;31.27;;;;;;;3.50;100.00;102186.09;5082042;28;20395;-88
2022/01/27 08:37:45;;;;;;;65.30;31.10;;;;;;;3.09;100.00;102133.44;5093020;28;20036;-88
2022/01/27 08:40:14;;;;;;;74.13;33.92;;;;;;;2.97;100.00;102116.59;5075018;28;20039;-87
2022/01/27 08:42:43;;;;;;;77.65;33.80;;;;;;;2.85;100.00;102093.50;5093227;28;20395;-88
2022/01/27 08:45:15;;;;;;;72.35;30.65;;;;;;;3.30;100.00;102160.19;5092964;28;20111;-87
2022/01/27 08:47:44;;;;;;;78.43;35.50;;;;;;;3.80;100.00;102245.25;5075053;28;20028;-88
2022/01/27 08:50:14;;;;;;;74.22;33.95;;;;;;;3.85;100.00;102269.84;5074833;28;20345;-88
2022/01/27 08:52:41;;;;;;;71.80;32.55;;;;;;;3.39;100.00;102169.25;5071543;28;20031;-89
2022/01/27 08:55:07;;;;;;;74.70;33.95;;;;;;;3.89;100.00;102252.50;5071245;28;20024;-87
2022/01/27 08:57:34;;;;;;;73.60;33.53;;;;;;;3.72;100.00;102216.41;5054701;28;20043;-88
2022/01/27 09:00:01;;;;;;;76.75;33.92;;;;;;;3.87;100.00;102227.63;5071077;28;20135;-88
2022/01/27 09:02:27;;;;;;;81.45;34.50;;;;;;;3.79;100.00;102216.72;5071179;28;20052;-86
2022/01/27 09:04:53;;;;;;;84.35;35.53;;;;;;;3.44;100.00;102138.34;5071844;28;20459;-86
2022/01/27 09:07:19;;;;;;;87.05;37.10;;;;;;;3.26;100.00;102122.06;5070880;28;20040;-88
2022/01/27 09:09:45;;;;;;;84.38;34.08;;;;;;;4.10;100.00;102247.03;5070996;28;20499;-89
2022/01/27 09:12:12;;;;;;;88.10;36.58;;;;;;;3.80;100.00;102192.41;5071590;28;20048;-89
2022/01/27 09:14:40;;;;;;;88.47;37.90;;;;;;;3.53;100.00;102134.00;5071093;28;20032;-88
2022/01/27 09:17:06;;;;;;;78.78;37.45;;;;;;;3.63;100.00;102134.00;5054993;28;20044;-89
2022/01/27 09:19:36;;;;;;;77.20;37.13;;;;;;;3.85;100.00;102162.44;5070479;28;20024;-89
2022/01/27 09:22:07;;;;;;;85.45;38.40;;;;;;;3.82;100.00;102152.00;5071546;28;20029;-89
2022/01/27 09:24:38;;;;;;;86.30;38.83;;;;;;;4.39;100.00;102252.44;5055398;28;20041;-89
2022/01/27 09:27:05;;;;;;;78.38;36.60;;;;;;;4.13;100.00;102208.28;5070243;28;20056;-89
2022/01/27 09:29:32;;;;;;;74.72;35.25;;;;;;;4.13;100.00;102189.50;5072213;28;20020;-88
2022/01/27 09:32:03;;;;;;;79.47;36.25;;;;;;;4.37;100.00;102265.19;5071088;28;20024;-89
2022/01/27 09:34:29;;;;;;;75.72;36.22;;;;;;;4.45;100.00;102242.97;5071189;28;20074;-88
2022/01/27 09:36:57;;;;;;;78.28;37.85;;;;;;;4.01;100.00;102181.53;5070812;28;20024;-88
2022/01/27 09:39:26;;;;;;;78.22;37.97;;;;;;;4.06;100.00;102180.28;5070878;28;20024;-88
2022/01/27 09:41:56;;;;;;;74.82;36.83;;;;;;;4.34;100.00;102205.47;5054526;28;20056;-90
2022/01/27 09:44:30;;;;;;;70.90;36.40;;;;;;;4.24;100.00;102181.31;5070979;28;20037;-89
2022/01/27 09:47:02;;;;;;;64.10;32.75;;;;;;;4.51;100.00;102225.44;5070983;28;20481;-89
2022/01/27 09:49:37;;;;;;;80.88;38.17;;;;;;;4.35;100.00;102197.25;5070819;28;20384;-89
2022/01/27 09:52:05;;;;;;;70.90;36.50;;;;;;;4.59;100.00;102251.59;5071016;28;20029;-90
2022/01/27 09:54:31;;;;;;;67.05;34.13;;;;;;;4.35;100.00;102226.00;5053922;28;20068;-89
2022/01/27 09:56:56;;;;;;;62.25;34.75;;;;;;;4.59;100.00;102259.66;5071069;28;20120;-89
2022/01/27 09:59:25;;;;;;;62.85;34.42;;;;;;;4.09;100.00;102169.25;5053822;28;20040;-88
2022/01/27 10:02:09;;;;;;;66.63;35.13;;;;;;;4.30;100.00;102194.16;5071737;28;20083;-88
2022/01/27 10:04:52;;;;;;;68.18;36.38;;;;;;;4.29;100.00;102213.13;5071996;28;20044;-88
2022/01/27 10:07:21;;;;;;;73.10;37.88;;;;;;;3.99;100.00;102159.38;5070439;28;20036;-88
2022/01/27 10:09:58;;;;;;;67.35;34.38;;;;;;;4.63;100.00;102263.78;5070286;28;20563;-88
2022/01/27 10:12:56;;;;;;;69.82;36.13;;;;;;;4.21;100.00;102190.50;5069644;28;20395;-88
2022/01/27 10:15:24;;;;;;;62.28;33.38;;;;;;;4.13;100.00;102159.94;5070345;28;20098;-89
2022/01/27 10:18:09;;;;;;;66.22;34.72;;;;;;;4.73;100.00;102259.25;5071281;28;20108;-88
2022/01/27 10:20:37;;;;;;;56.60;32.35;;;;;;;4.77;100.00;102243.66;5070223;28;20024;-88
2022/01/27 10:23:12;;;;;;;67.00;35.95;;;;;;;3.91;100.00;102116.25;5072207;28;20531;-89
2022/01/27 10:25:49;;;;;;;66.05;35.08;;;;;;;4.36;100.00;102193.59;5070518;28;20078;-88
2022/01/27 10:31:23;;;;;;;60.53;34.55;;;;;;;4.84;100.00;102242.97;5073772;28;20093;-89
2022/01/27 10:33:56;;;;;;;62.42;33.75;;;;;;;4.84;100.00;102269.00;5073922;28;20072;-88
2022/01/27 10:36:30;;;;;;;68.03;34.92;;;;;;;4.51;100.00;102196.69;5073837;28;20024;-88
2022/01/27 10:38:59;;;;;;;48.20;25.80;;;;;;;4.53;100.00;102194.75;5073908;28;20060;-88
2022/01/27 10:41:32;;;;;;;63.08;33.80;;;;;;;4.82;100.00;102236.03;5075059;28;20087;-89
2022/01/27 10:44:16;;;;;;;60.20;35.30;;;;;;;4.12;100.00;102120.63;5073609;28;20131;-88
2022/01/27 10:47:08;;;;;;;56.53;34.78;;;;;;;4.45;100.00;102169.56;5073803;28;20028;-88
2022/01/27 10:49:37;;;;;;;63.67;34.50;;;;;;;4.19;100.00;102125.31;5073617;28;20115;-88
2022/01/27 10:52:03;;;;;;;49.78;29.05;;;;;;;4.16;100.00;102114.00;5073359;28;20067;-88
2022/01/27 10:54:49;;;;;;;59.88;34.63;;;;;;;4.28;100.00;102133.50;5073363;28;20365;-88
2022/01/27 10:57:16;;;;;;;56.80;32.22;;;;;;;4.67;100.00;102195.28;5073618;28;20389;-88
2022/01/27 10:59:45;;;;;;;57.55;34.70;;;;;;;4.70;100.00;102203.06;5073537;28;20033;-88
2022/01/27 11:02:21;;;;;;;64.55;35.95;;;;;;;4.30;100.00;102134.22;5073758;28;20086;-88
2022/01/27 11:04:59;;;;;;;61.53;36.22;;;;;;;5.05;100.00;102248.16;5074396;28;20111;-88
2022/01/27 11:07:26;;;;;;;60.75;34.75;;;;;;;4.53;100.00;102154.41;5073802;28;20040;-88
2022/01/27 11:09:53;;;;;;;64.90;36.40;;;;;;;4.39;100.00;102128.81;5073586;28;20544;-88
2022/01/27 11:12:22;;;;;;;60.72;35.88;;;;;;;4.56;100.00;102153.25;5056701;28;20029;-88
2022/01/27 11:14:49;;;;;;;65.07;36.20;;;;;;;4.71;100.00;102161.72;5074365;28;20393;-88
2022/01/27 11:17:19;;;;;;;69.25;36.10;;;;;;;4.93;100.00;102192.81;5073407;28;20070;-88
2022/01/27 11:25:09;;;;;;;66.00;37.65;;;;;;;4.80;100.00;102141.19;5074166;28;20037;-88
2022/01/27 11:27:38;;;;;;;61.20;36.65;;;;;;;5.14;100.00;102176.50;5074194;28;20032;-88
2022/01/27 11:30:19;;;;;;;62.85;36.08;;;;;;;5.37;100.00;102224.56;5072813;28;20208;-88
2022/01/27 11:32:53;;;;;;;60.08;32.72;;;;;;;5.56;100.00;102212.88;5072898;28;20059;-88
2022/01/27 11:35:22;;;;;;;61.42;36.92;;;;;;;4.89;100.00;102116.97;5072605;28;20106;-88
2022/01/27 11:37:55;;;;;;;62.55;35.75;;;;;;;4.90;100.00;102088.22;5073810;28;20025;-88
2022/01/27 11:40:47;;;;;;;66.88;35.15;;;;;;;4.99;100.00;102113.38;5072740;28;20027;-88
2022/01/27 11:43:14;;;;;;;61.15;33.08;;;;;;;5.63;100.00;102205.91;5068610;28;20036;-88
2022/01/27 11:45:43;;;;;;;65.00;36.95;;;;;;;5.70;100.00;102204.31;5072017;28;20119;-88
2022/01/27 11:48:11;;;;;;;65.78;36.75;;;;;;;5.74;100.00;102202.16;5055443;28;20404;-87
2022/01/27 11:50:55;;;;;;;67.47;38.38;;;;;;;5.75;100.00;102201.16;5072770;28;20034;-89
2022/01/27 11:53:27;;;;;;;63.08;36.55;;;;;;;5.77;100.00;102200.00;5072812;28;20050;-89
2022/01/27 11:55:52;;;;;;;59.58;35.55;;;;;;;5.07;100.00;102082.06;5072715;28;20021;-89
2022/01/27 11:58:22;;;;;;;66.55;35.28;;;;;;;5.30;100.00;102113.09;5083801;22;20110;-89
2022/01/27 12:01:03;;;;;;;66.95;36.50;;;;;;;5.82;100.00;102206.78;5053378;28;20041;-89
2022/01/27 12:03:29;;;;;;;63.45;35.22;;;;;;;5.24;100.00;102106.47;5052824;28;20120;-90
2022/01/27 12:06:22;;;;;;;65.38;34.65;;;;;;;5.86;100.00;102194.69;5036010;28;20408;-89
2022/01/27 12:08:49;;;;;;;54.75;30.15;;;;;;;5.60;100.00;102150.50;5052080;28;20477;-90
2022/01/27 12:11:58;;;;;;;56.53;32.38;;;;;;;5.91;100.00;102192.41;5052579;28;20040;-90
2022/01/27 12:14:31;;;;;;;59.90;31.55;;;;;;;5.91;100.00;102190.56;5028495;28;20040;-90
2022/01/27 12:17:09;;;;;;;50.00;30.40;;;;;;;5.95;100.00;102193.81;5052367;28;20071;-90
2022/01/27 12:20:22;;;;;;;54.53;30.42;;;;;;;5.97;100.00;102186.44;5052596;28;20025;-90
2022/01/27 12:22:52;;;;;;;;;;;;;;;5.98;100.00;102193.53;5053873;28;20048;-91
2022/01/27 12:25:20;;;;;;;48.25;25.77;;;;;;;6.00;100.00;102182.59;5052475;28;19963;-91
2022/01/27 12:28:06;;;;;;;49.70;26.05;;;;;;;5.86;100.00;102154.28;5019345;28;20120;-91
2022/01/27 12:30:37;;;;;;;48.50;28.73;;;;;;;5.39;100.00;102080.78;5019112;28;20017;-91